Blagoevgrad, Bulgaria
Current Conditions -  °F | °C
As of 8:30 AM on Saturday 25 Oct 2014 (Local Time) from LBSF Reporting Station
Light Snow Light Snow  
Wind Chill: 32°   Ceiling: 3900
Heat Index: 37°   Visibility: 5mi
Dew Point: 32°   Wind: 7mph
Humidity: 81%   Direction: 350°N
Pressure: 30.06"   Gusts: NA
Location:  42.03°N, 23.09°E
Report Text: LBSF 250530Z 35003MPS 300V030 8000 -SN FEW033 BKN039 OVC045 03/M00 Q1018 TEMPO 3000 SN
Loading
Personal Weather Stations






























Interactive Weather Map
Tropical Storm Tracking
New forecast layout! Learn more

10-Day Weather Forecast

Advertisements
Track Severe Weather on mobile